Time;durP1;ratioP1;P1;durP2;ratioP2;P2;SDS_P1;SDS_P2;PMS_P1;PMS_P2;Temp;Humidity;BMP_temperature;BMP_pressure;BME280_temperature;BME280_humidity;BME280_pressure;Samples;Min_cycle;Max_cycle;Signal;HPM_P1;HPM_P2
2023/06/19 00:01:19;;;;;;;4.80;4.50;;;25.40;58.60;;;;;;222411;1260;24279;-46
2023/06/19 00:06:23;;;;;;;5.40;5.00;;;25.30;58.50;;;;;;222309;1257;24221;-46
2023/06/19 00:11:28;;;;;;;3.90;3.70;;;25.30;58.60;;;;;;222558;1244;25504;-52
2023/06/19 00:16:32;;;;;;;5.00;4.60;;;25.20;58.70;;;;;;222360;1254;24183;-47
2023/06/19 00:21:37;;;;;;;4.50;4.20;;;25.20;58.60;;;;;;222577;1263;24321;-48
2023/06/19 00:26:43;;;;;;;5.00;4.50;;;25.20;58.70;;;;;;222398;1261;22590;-50
2023/06/19 00:31:47;;;;;;;4.50;4.10;;;25.10;58.60;;;;;;222369;1254;22524;-48
2023/06/19 00:36:56;;;;;;;4.10;3.80;;;25.10;59.10;;;;;;222364;1254;22518;-46
2023/06/19 00:42:00;;;;;;;5.00;4.60;;;25.10;59.10;;;;;;222666;1254;24253;-47
2023/06/19 00:47:05;;;;;;;4.40;4.10;;;25.00;59.10;;;;;;222280;1260;22984;-48
2023/06/19 00:52:09;;;;;;;4.40;4.10;;;25.00;59.30;;;;;;222596;1254;23119;-50
2023/06/19 00:57:13;;;;;;;4.50;4.20;;;25.00;58.90;;;;;;222196;1260;22531;-47
2023/06/19 01:02:18;;;;;;;4.10;3.80;;;25.00;58.80;;;;;;222422;1256;22636;-48
2023/06/19 01:07:43;;;;;;;5.20;4.80;;;24.90;59.10;;;;;;222369;1257;22518;-47
2023/06/19 01:12:55;;;;;;;4.30;4.00;;;25.00;59.70;;;;;;222410;1260;25221;-47
2023/06/19 01:18:00;;;;;;;4.50;4.10;;;25.00;59.80;;;;;;222579;1247;22527;-46
2023/06/19 01:23:08;;;;;;;4.60;4.00;;;25.00;59.10;;;;;;222426;1254;22606;-46
2023/06/19 01:28:13;;;;;;;4.50;4.00;;;25.00;59.90;;;;;;222598;1246;24244;-50
2023/06/19 01:33:21;;;;;;;4.50;4.20;;;25.00;58.90;;;;;;222624;1260;22758;-47
2023/06/19 01:38:28;;;;;;;4.40;4.10;;;25.00;59.10;;;;;;222487;1247;22514;-46
2023/06/19 01:43:33;;;;;;;4.10;3.60;;;25.00;59.40;;;;;;222532;1255;24197;-50
2023/06/19 01:48:38;;;;;;;5.50;3.90;;;25.00;59.10;;;;;;222679;1253;22522;-47
2023/06/19 01:53:42;;;;;;;3.90;3.70;;;24.90;59.20;;;;;;222609;1260;24203;-47
2023/06/19 01:58:46;;;;;;;4.10;3.80;;;25.00;59.00;;;;;;222415;1253;22602;-46
2023/06/19 02:03:50;;;;;;;4.30;3.70;;;24.90;59.00;;;;;;222326;1261;22566;-50
2023/06/19 02:08:55;;;;;;;5.60;4.80;;;25.00;59.00;;;;;;222588;1260;24266;-47
2023/06/19 02:13:59;;;;;;;4.30;4.00;;;24.90;59.00;;;;;;221796;1265;996068;-47
2023/06/19 02:19:03;;;;;;;4.00;3.60;;;25.00;59.30;;;;;;222641;1253;22549;-45
2023/06/19 02:24:07;;;;;;;3.90;3.70;;;24.90;59.20;;;;;;222434;1260;22521;-47
2023/06/19 02:29:11;;;;;;;4.30;4.00;;;24.90;59.20;;;;;;222343;1256;22520;-51
2023/06/19 02:34:16;;;;;;;4.80;3.80;;;24.90;59.10;;;;;;222441;1262;23891;-52
2023/06/19 02:39:20;;;;;;;4.00;3.60;;;24.90;59.20;;;;;;222800;1260;22546;-48
2023/06/19 02:44:24;;;;;;;4.40;4.00;;;24.80;59.20;;;;;;222387;1252;22508;-47
2023/06/19 02:49:28;;;;;;;4.00;3.80;;;24.90;59.10;;;;;;222493;1263;22527;-48
2023/06/19 02:54:33;;;;;;;4.20;3.80;;;24.80;59.00;;;;;;222558;1261;24214;-47
2023/06/19 02:59:37;;;;;;;3.80;3.50;;;24.80;59.30;;;;;;222556;1260;22603;-47
2023/06/19 03:04:41;;;;;;;4.40;4.00;;;24.80;59.20;;;;;;222424;1260;24075;-48
2023/06/19 03:09:45;;;;;;;4.40;4.00;;;24.80;59.30;;;;;;222456;1260;23019;-46
2023/06/19 03:14:50;;;;;;;4.20;3.90;;;24.70;59.30;;;;;;222801;1261;22527;-46
2023/06/19 03:19:54;;;;;;;4.20;3.70;;;24.70;59.60;;;;;;222515;1268;22524;-49
2023/06/19 03:24:59;;;;;;;4.50;4.20;;;24.70;59.10;;;;;;222432;1262;25596;-54
2023/06/19 03:30:08;;;;;;;3.60;3.40;;;24.70;59.00;;;;;;222599;1256;24225;-49
2023/06/19 03:35:15;;;;;;;3.80;3.60;;;24.70;59.20;;;;;;222636;1265;22507;-48
2023/06/19 03:40:25;;;;;;;4.10;3.80;;;24.80;59.00;;;;;;222490;1262;22563;-52
2023/06/19 03:45:29;;;;;;;3.80;3.50;;;24.70;59.00;;;;;;222578;1245;25616;-54
2023/06/19 03:50:33;;;;;;;4.10;3.70;;;24.70;58.90;;;;;;222872;1262;22630;-51
2023/06/19 03:55:38;;;;;;;4.60;4.10;;;24.80;58.80;;;;;;222811;1262;22571;-50
2023/06/19 04:00:42;;;;;;;4.80;3.90;;;24.80;59.20;;;;;;222781;1262;22528;-53
2023/06/19 04:05:47;;;;;;;4.30;3.90;;;24.80;58.80;;;;;;222648;1251;22521;-47
2023/06/19 04:10:52;;;;;;;3.80;3.50;;;24.70;58.90;;;;;;222546;1254;25201;-50
2023/06/19 04:15:56;;;;;;;4.10;3.90;;;24.80;58.80;;;;;;222766;1264;26485;-49
2023/06/19 04:21:03;;;;;;;4.50;4.10;;;24.80;58.70;;;;;;222567;1262;22531;-44
2023/06/19 04:26:08;;;;;;;3.90;3.60;;;24.80;58.70;;;;;;222810;1267;24215;-45
2023/06/19 04:31:17;;;;;;;4.10;3.80;;;24.80;58.70;;;;;;222817;1252;24208;-47
2023/06/19 04:36:22;;;;;;;3.80;3.60;;;24.80;58.60;;;;;;222621;1261;22586;-48
2023/06/19 04:41:27;;;;;;;4.60;4.30;;;24.80;58.60;;;;;;223069;1259;25313;-51
2023/06/19 04:46:31;;;;;;;4.10;3.80;;;24.80;58.50;;;;;;222590;1260;24053;-45
2023/06/19 04:51:35;;;;;;;4.30;4.00;;;24.80;58.60;;;;;;222553;1259;25597;-46
2023/06/19 04:56:39;;;;;;;4.50;4.20;;;24.80;58.60;;;;;;223554;1262;22743;-44
2023/06/19 05:01:44;;;;;;;3.90;3.60;;;24.80;59.00;;;;;;223699;1267;22518;-45
2023/06/19 05:06:49;;;;;;;4.30;4.00;;;24.90;58.60;;;;;;222818;1266;24233;-50
2023/06/19 05:11:53;;;;;;;4.10;3.80;;;24.90;59.10;;;;;;222422;1261;24298;-44
2023/06/19 05:16:57;;;;;;;3.90;3.60;;;24.90;58.60;;;;;;222573;1262;22520;-46
2023/06/19 05:22:02;;;;;;;5.30;4.20;;;24.90;58.10;;;;;;222557;1262;22623;-47
2023/06/19 05:27:06;;;;;;;4.10;3.80;;;24.90;58.90;;;;;;222383;1265;25392;-44
2023/06/19 05:32:10;;;;;;;4.10;3.70;;;24.90;58.60;;;;;;222216;1268;22504;-49
2023/06/19 05:37:16;;;;;;;6.20;3.90;;;24.90;58.70;;;;;;221525;1265;25471;-47
2023/06/19 05:42:19;;;;;;;5.00;4.30;;;24.90;58.70;;;;;;221277;1260;22524;-43
2023/06/19 05:47:25;;;;;;;4.00;3.70;;;24.90;59.40;;;;;;221552;1265;22512;-50
2023/06/19 05:52:29;;;;;;;4.80;4.40;;;24.80;59.00;;;;;;221570;1270;26063;-46
2023/06/19 05:57:34;;;;;;;5.80;3.90;;;24.90;58.90;;;;;;221175;1266;25245;-46
2023/06/19 06:02:38;;;;;;;4.40;3.70;;;25.00;59.80;;;;;;222379;1265;24203;-45
2023/06/19 06:07:43;;;;;;;4.80;4.30;;;25.00;59.40;;;;;;222638;1263;25348;-46
2023/06/19 06:12:48;;;;;;;6.00;4.00;;;25.10;59.40;;;;;;222528;1267;22535;-47
2023/06/19 06:17:52;;;;;;;6.50;4.40;;;25.10;59.60;;;;;;222540;1255;22644;-45
2023/06/19 06:22:56;;;;;;;7.90;4.10;;;25.10;58.90;;;;;;222457;1253;25211;-45
2023/06/19 06:28:00;;;;;;;10.00;4.00;;;25.10;59.40;;;;;;222551;1264;23130;-49
2023/06/19 06:33:05;;;;;;;11.70;4.00;;;25.10;61.30;;;;;;222684;1260;22507;-46
2023/06/19 06:38:09;;;;;;;4.60;4.30;;;25.10;62.10;;;;;;222495;1262;22600;-45
2023/06/19 06:43:13;;;;;;;6.40;4.40;;;25.20;61.80;;;;;;222348;1261;25397;-48
2023/06/19 06:48:18;;;;;;;4.30;4.00;;;25.20;61.60;;;;;;222461;1256;22517;-45
2023/06/19 06:53:22;;;;;;;11.20;4.20;;;25.10;61.20;;;;;;222742;1262;22640;-47
2023/06/19 06:58:27;;;;;;;10.40;5.60;;;25.30;60.90;;;;;;222467;1265;22517;-45
2023/06/19 07:03:32;;;;;;;9.10;4.10;;;25.30;60.50;;;;;;222654;1260;22515;-46
2023/06/19 07:08:40;;;;;;;7.50;4.70;;;25.40;60.50;;;;;;222544;1262;22550;-49
2023/06/19 07:13:44;;;;;;;9.00;4.50;;;25.40;60.00;;;;;;222344;1261;22520;-49
2023/06/19 07:18:48;;;;;;;4.60;4.20;;;25.30;60.30;;;;;;222156;1266;22848;-48
2023/06/19 07:23:52;;;;;;;7.70;4.70;;;25.30;59.60;;;;;;222482;1254;25377;-47
2023/06/19 07:28:57;;;;;;;4.90;4.50;;;25.30;59.30;;;;;;222429;1264;25201;-45
2023/06/19 07:34:02;;;;;;;4.70;4.30;;;25.40;59.30;;;;;;222505;1262;22528;-50
2023/06/19 07:39:06;;;;;;;7.50;4.10;;;25.30;59.00;;;;;;222404;1262;22511;-47
2023/06/19 07:44:11;;;;;;;7.40;4.00;;;25.30;58.70;;;;;;222626;1253;22520;-50
2023/06/19 07:49:16;;;;;;;5.30;4.60;;;25.30;59.10;;;;;;222921;1255;24189;-48
2023/06/19 07:54:20;;;;;;;4.60;4.20;;;25.30;59.10;;;;;;222520;1264;22520;-56
2023/06/19 07:59:24;;;;;;;5.80;4.00;;;25.40;58.70;;;;;;222493;1263;22625;-51
2023/06/19 08:04:28;;;;;;;4.70;4.10;;;25.30;59.00;;;;;;222128;1263;24412;-51
2023/06/19 08:09:35;;;;;;;7.90;4.30;;;25.30;59.30;;;;;;222446;1255;22511;-52
2023/06/19 08:14:39;;;;;;;4.90;4.50;;;25.40;59.20;;;;;;222223;1258;22654;-53
2023/06/19 08:19:43;;;;;;;6.10;4.70;;;25.40;59.10;;;;;;222185;1261;24245;-54
2023/06/19 08:24:47;;;;;;;4.40;4.00;;;25.40;59.40;;;;;;222304;1262;23943;-53
2023/06/19 08:29:51;;;;;;;4.80;4.20;;;25.50;59.00;;;;;;222284;1253;23886;-54
2023/06/19 08:34:55;;;;;;;5.00;4.50;;;25.70;58.50;;;;;;222361;1247;23939;-54
2023/06/19 08:39:59;;;;;;;5.80;4.50;;;25.70;58.20;;;;;;222275;1262;22771;-54
2023/06/19 08:45:06;;;;;;;4.30;4.00;;;25.70;58.20;;;;;;222163;1260;22516;-54
2023/06/19 08:50:11;;;;;;;4.40;4.10;;;25.70;58.70;;;;;;222432;1261;25403;-51
2023/06/19 08:55:15;;;;;;;4.40;4.00;;;25.70;58.80;;;;;;222373;1260;25225;-54
2023/06/19 09:00:28;;;;;;;6.20;4.20;;;25.80;58.90;;;;;;222435;1247;24247;-53
2023/06/19 09:05:33;;;;;;;5.60;4.90;;;25.80;58.50;;;;;;222100;1251;25309;-59
2023/06/19 09:10:37;;;;;;;5.00;4.00;;;25.80;58.60;;;;;;222116;1262;25457;-55
2023/06/19 09:15:42;;;;;;;4.70;3.70;;;25.90;58.30;;;;;;222492;1263;22523;-54
2023/06/19 09:20:47;;;;;;;4.40;4.10;;;25.80;58.50;;;;;;222172;1262;22510;-55
2023/06/19 09:25:56;;;;;;;5.10;3.90;;;25.80;58.40;;;;;;222298;1263;22515;-57
2023/06/19 09:31:05;;;;;;;4.50;4.10;;;26.00;58.80;;;;;;222405;1263;23139;-55
2023/06/19 09:36:09;;;;;;;3.90;3.70;;;26.00;58.50;;;;;;222379;1261;24167;-54
2023/06/19 09:41:15;;;;;;;3.90;3.60;;;26.00;58.40;;;;;;222506;1265;22632;-60
2023/06/19 09:46:22;;;;;;;6.00;4.50;;;26.00;58.10;;;;;;222310;1262;22520;-58
2023/06/19 09:51:37;;;;;;;5.80;3.90;;;26.00;58.60;;;;;;222209;1253;25207;-46
2023/06/19 09:56:42;;;;;;;5.40;3.70;;;26.00;58.50;;;;;;221895;1265;22527;-49
2023/06/19 10:01:46;;;;;;;9.80;4.90;;;26.00;58.60;;;;;;222512;1265;22510;-51
2023/06/19 10:06:51;;;;;;;9.00;4.50;;;26.10;59.40;;;;;;222521;1263;22637;-45
2023/06/19 10:11:55;;;;;;;4.90;4.00;;;26.10;59.00;;;;;;222530;1265;23955;-49
2023/06/19 10:17:08;;;;;;;11.20;5.00;;;26.10;58.90;;;;;;222313;1265;22501;-48
2023/06/19 10:22:20;;;;;;;6.30;4.30;;;26.10;58.50;;;;;;222331;1254;22515;-48
2023/06/19 10:27:25;;;;;;;12.30;6.30;;;26.20;58.50;;;;;;222462;1256;22691;-47
2023/06/19 10:32:29;;;;;;;10.70;5.50;;;26.20;59.80;;;;;;222242;1253;25479;-47
2023/06/19 10:37:33;;;;;;;11.60;6.70;;;26.30;59.50;;;;;;220966;1267;22583;-47
2023/06/19 10:42:38;;;;;;;10.00;6.00;;;26.40;60.30;;;;;;220876;1268;24305;-48
2023/06/19 10:47:43;;;;;;;10.40;6.20;;;26.40;59.50;;;;;;220932;1270;22521;-48
2023/06/19 10:52:48;;;;;;;10.00;6.40;;;26.50;59.40;;;;;;221693;1263;22541;-47
2023/06/19 10:57:52;;;;;;;7.60;5.20;;;26.50;59.80;;;;;;222634;1263;25465;-53
2023/06/19 11:02:57;;;;;;;10.40;5.40;;;26.60;59.10;;;;;;222212;1262;26035;-49
2023/06/19 11:08:02;;;;;;;7.60;5.20;;;26.60;59.00;;;;;;222335;1262;22521;-50
2023/06/19 11:13:06;;;;;;;11.30;5.90;;;26.70;58.70;;;;;;222445;1263;22626;-53
2023/06/19 11:18:11;;;;;;;7.10;5.60;;;26.70;58.50;;;;;;222294;1268;25353;-53
2023/06/19 11:23:15;;;;;;;7.20;5.20;;;26.70;58.30;;;;;;222367;1257;24232;-50
2023/06/19 11:28:22;;;;;;;9.10;5.60;;;26.80;58.30;;;;;;222627;1265;22527;-51
2023/06/19 11:33:26;;;;;;;5.40;4.90;;;26.70;58.70;;;;;;222064;1253;22761;-47
2023/06/19 11:38:30;;;;;;;8.80;5.30;;;26.80;57.90;;;;;;222181;1265;24173;-52
2023/06/19 11:43:35;;;;;;;6.10;4.60;;;26.90;57.80;;;;;;222071;1253;22619;-55
2023/06/19 11:48:42;;;;;;;6.70;4.90;;;26.90;57.70;;;;;;222325;1265;22518;-47
2023/06/19 11:54:05;;;;;;;6.30;4.90;;;27.00;57.50;;;;;;222101;1260;23900;-49
2023/06/19 11:59:10;;;;;;;5.30;4.20;;;27.00;57.50;;;;;;222346;1259;22523;-48
2023/06/19 12:04:14;;;;;;;5.50;4.50;;;27.00;57.80;;;;;;222640;1265;22502;-49
2023/06/19 12:09:18;;;;;;;6.20;4.50;;;27.00;57.60;;;;;;222232;1264;25458;-48
2023/06/19 12:14:24;;;;;;;4.50;4.00;;;26.90;57.70;;;;;;222354;1264;22682;-47
2023/06/19 12:19:29;;;;;;;4.50;4.10;;;27.00;57.50;;;;;;222265;1265;24186;-50
2023/06/19 12:24:33;;;;;;;4.80;4.30;;;27.10;57.40;;;;;;222384;1261;22508;-50
2023/06/19 12:29:37;;;;;;;5.00;4.20;;;27.10;57.20;;;;;;222428;1253;23892;-50
2023/06/19 12:34:46;;;;;;;5.70;4.40;;;27.10;57.20;;;;;;222510;1264;22581;-46
2023/06/19 12:39:50;;;;;;;4.70;4.30;;;27.10;57.20;;;;;;222400;1260;24242;-50
2023/06/19 12:44:54;;;;;;;4.60;4.00;;;27.10;57.00;;;;;;222120;1262;22528;-47
2023/06/19 12:49:58;;;;;;;5.20;4.70;;;27.10;57.80;;;;;;222324;1265;22623;-51
2023/06/19 12:55:03;;;;;;;4.90;4.50;;;27.10;57.30;;;;;;222652;1263;22899;-47
2023/06/19 13:00:13;;;;;;;4.70;4.30;;;27.00;57.60;;;;;;222466;1260;25245;-49
2023/06/19 13:05:16;;;;;;;4.40;4.10;;;27.10;57.80;;;;;;222464;1255;22573;-51
2023/06/19 13:10:21;;;;;;;7.00;4.20;;;27.10;57.30;;;;;;222748;1263;22530;-50
2023/06/19 13:15:27;;;;;;;4.00;3.70;;;27.10;57.10;;;;;;222992;1263;25204;-49
2023/06/19 13:20:31;;;;;;;4.60;4.20;;;27.10;57.20;;;;;;222347;1263;22636;-52
2023/06/19 13:25:36;;;;;;;4.70;4.30;;;27.10;57.60;;;;;;222506;1256;25309;-48
2023/06/19 13:30:40;;;;;;;4.30;4.00;;;27.00;57.20;;;;;;222316;1265;24203;-52
2023/06/19 13:35:44;;;;;;;4.70;4.20;;;27.00;57.20;;;;;;222649;1262;22518;-49
2023/06/19 13:40:48;;;;;;;4.30;4.00;;;27.10;57.30;;;;;;222574;1262;24180;-47
2023/06/19 13:45:52;;;;;;;4.20;3.80;;;27.10;57.10;;;;;;222472;1265;24179;-49
2023/06/19 13:50:58;;;;;;;4.10;3.70;;;27.10;57.10;;;;;;222597;1260;25488;-53
2023/06/19 13:56:03;;;;;;;4.90;4.10;;;27.10;57.00;;;;;;222628;1262;25518;-49
2023/06/19 14:01:07;;;;;;;4.30;3.90;;;27.10;56.90;;;;;;222871;1264;24364;-50
2023/06/19 14:06:12;;;;;;;4.40;4.00;;;27.10;56.80;;;;;;222565;1247;25220;-46
2023/06/19 14:11:18;;;;;;;4.50;4.10;;;27.10;56.70;;;;;;222807;1262;228394;-48
2023/06/19 14:16:22;;;;;;;5.60;3.90;;;27.10;56.90;;;;;;222473;1257;24304;-48
2023/06/19 14:21:26;;;;;;;4.10;3.70;;;27.10;57.30;;;;;;222533;1264;23947;-54
2023/06/19 14:26:31;;;;;;;4.90;4.50;;;27.10;58.80;;;;;;222486;1263;23137;-50
2023/06/19 14:31:35;;;;;;;4.40;3.90;;;27.10;59.40;;;;;;222608;1260;24651;-48
2023/06/19 14:36:39;;;;;;;4.50;4.10;;;27.20;62.30;;;;;;222415;1262;25271;-47
2023/06/19 14:41:43;;;;;;;4.50;4.20;;;27.30;61.50;;;;;;222570;1268;22784;-54
2023/06/19 14:46:47;;;;;;;8.90;5.10;;;27.40;60.50;;;;;;222678;1267;22515;-53
2023/06/19 14:51:52;;;;;;;5.20;4.80;;;27.40;64.20;;;;;;222557;1262;24228;-53
2023/06/19 14:56:56;;;;;;;9.10;4.40;;;27.50;64.40;;;;;;222352;1265;22514;-52
2023/06/19 15:02:02;;;;;;;7.00;3.80;;;27.40;63.60;;;;;;222498;1264;22661;-50
2023/06/19 15:07:07;;;;;;;5.50;4.20;;;27.40;62.90;;;;;;222161;1256;26488;-51
2023/06/19 15:12:13;;;;;;;5.20;4.20;;;27.50;62.20;;;;;;222217;1264;22509;-51
2023/06/19 15:17:18;;;;;;;5.40;4.40;;;27.60;62.20;;;;;;222505;1262;24780;-52
2023/06/19 15:22:22;;;;;;;5.50;4.60;;;27.50;62.70;;;;;;222181;1262;22529;-50
2023/06/19 15:27:26;;;;;;;5.30;4.60;;;27.60;63.10;;;;;;222261;1262;24192;-54
2023/06/19 15:32:30;;;;;;;4.60;4.30;;;27.70;62.80;;;;;;222271;1263;24222;-52
2023/06/19 15:37:34;;;;;;;5.70;5.10;;;27.70;62.30;;;;;;222041;1269;25429;-53
2023/06/19 15:42:38;;;;;;;10.30;6.80;;;27.80;62.60;;;;;;221852;1262;24234;-50
2023/06/19 15:47:43;;;;;;;9.20;6.10;;;27.90;63.10;;;;;;222049;1264;25319;-50
2023/06/19 15:52:47;;;;;;;15.70;8.90;;;28.10;62.90;;;;;;221940;1265;25299;-49
2023/06/19 15:57:52;;;;;;;12.50;7.10;;;28.20;64.10;;;;;;222133;1259;25351;-48
2023/06/19 16:02:56;;;;;;;10.60;6.00;;;28.30;63.60;;;;;;222307;1260;22524;-52
2023/06/19 16:08:00;;;;;;;8.80;7.00;;;28.20;62.80;;;;;;222331;1268;22750;-47
2023/06/19 16:13:04;;;;;;;10.60;6.80;;;28.20;62.60;;;;;;222644;1262;25408;-50
2023/06/19 16:18:09;;;;;;;7.70;6.30;;;28.30;62.20;;;;;;222469;1253;22575;-48
2023/06/19 16:23:13;;;;;;;10.20;6.30;;;28.30;61.40;;;;;;222659;1267;25356;-49
2023/06/19 16:28:18;;;;;;;7.70;6.40;;;28.30;58.10;;;;;;222113;1262;22536;-47
2023/06/19 16:33:22;;;;;;;7.20;6.00;;;28.00;55.20;;;;;;222264;1265;22512;-49
2023/06/19 16:38:26;;;;;;;6.40;5.90;;;27.90;54.20;;;;;;222601;1267;25857;-51
2023/06/19 16:43:30;;;;;;;8.80;6.10;;;27.80;53.70;;;;;;222296;1267;22520;-46
2023/06/19 16:48:35;;;;;;;6.60;6.10;;;27.80;53.50;;;;;;222485;1259;22567;-49
2023/06/19 16:53:39;;;;;;;6.70;6.20;;;27.80;53.50;;;;;;222294;1264;23903;-52
2023/06/19 16:58:43;;;;;;;7.40;6.80;;;27.70;53.00;;;;;;222138;1266;24786;-48
2023/06/19 17:03:48;;;;;;;8.60;6.30;;;27.70;53.10;;;;;;222243;1261;22527;-46
2023/06/19 17:08:52;;;;;;;12.10;6.80;;;27.70;53.30;;;;;;222559;1268;22514;-50
2023/06/19 17:13:56;;;;;;;7.20;6.50;;;27.60;53.00;;;;;;222842;1267;24334;-49
2023/06/19 17:19:00;;;;;;;10.90;8.20;;;27.60;54.00;;;;;;222139;1254;22533;-52
2023/06/19 17:24:04;;;;;;;12.40;7.70;;;27.60;54.00;;;;;;222052;1262;25583;-50
2023/06/19 17:29:09;;;;;;;10.00;7.30;;;27.70;53.60;;;;;;222203;1267;22509;-50
2023/06/19 17:34:13;;;;;;;9.50;7.40;;;27.70;52.30;;;;;;222376;1260;22518;-48
2023/06/19 17:39:17;;;;;;;7.50;6.90;;;27.60;52.70;;;;;;222095;1257;22586;-51
2023/06/19 17:44:26;;;;;;;9.40;7.20;;;27.50;52.30;;;;;;222285;1267;24339;-50
2023/06/19 17:49:30;;;;;;;7.70;7.00;;;27.50;52.10;;;;;;222076;1260;22592;-50
2023/06/19 17:54:34;;;;;;;7.10;6.40;;;27.40;52.50;;;;;;222024;1256;23697;-49
2023/06/19 17:59:38;;;;;;;7.60;6.80;;;27.30;51.80;;;;;;222131;1262;24194;-50
2023/06/19 18:04:43;;;;;;;7.70;6.80;;;27.30;51.90;;;;;;222351;1261;27627;-50
2023/06/19 18:09:47;;;;;;;9.50;6.90;;;27.30;52.30;;;;;;222716;1265;22801;-50
2023/06/19 18:14:51;;;;;;;9.20;6.50;;;27.40;52.50;;;;;;222413;1267;22648;-50
2023/06/19 18:19:56;;;;;;;9.90;7.70;;;27.20;53.30;;;;;;222517;1261;22518;-53
2023/06/19 18:25:03;;;;;;;13.00;7.10;;;27.30;53.60;;;;;;222310;1268;26543;-51
2023/06/19 18:30:08;;;;;;;8.90;6.90;;;27.30;53.50;;;;;;222124;1266;22652;-50
2023/06/19 18:35:12;;;;;;;11.20;7.00;;;27.30;53.90;;;;;;222644;1267;23945;-49
2023/06/19 18:40:16;;;;;;;14.00;7.60;;;27.20;54.20;;;;;;222145;1267;22523;-52
2023/06/19 18:45:20;;;;;;;10.80;7.20;;;27.10;54.60;;;;;;222451;1266;23882;-53
2023/06/19 18:50:25;;;;;;;13.90;7.40;;;27.10;55.00;;;;;;222332;1257;22547;-44
2023/06/19 18:55:30;;;;;;;8.80;7.20;;;27.10;55.80;;;;;;222277;1260;22649;-49
2023/06/19 19:00:34;;;;;;;8.50;7.50;;;27.10;56.30;;;;;;222348;1254;22508;-49
2023/06/19 19:05:40;;;;;;;11.00;7.70;;;27.00;55.50;;;;;;222653;1261;24362;-43
2023/06/19 19:10:45;;;;;;;9.30;7.80;;;27.00;55.50;;;;;;222355;1252;24404;-46
2023/06/19 19:15:49;;;;;;;14.10;7.90;;;26.80;56.00;;;;;;222420;1257;22665;-44
2023/06/19 19:20:53;;;;;;;10.70;8.30;;;26.70;56.60;;;;;;222499;1257;22521;-43
2023/06/19 19:25:57;;;;;;;9.50;8.50;;;26.60;58.60;;;;;;222407;1254;22517;-44
2023/06/19 19:31:03;;;;;;;11.10;8.60;;;26.60;59.30;;;;;;222502;1254;25274;-44
2023/06/19 19:36:08;;;;;;;9.00;8.20;;;26.50;58.80;;;;;;222428;1260;22514;-44
2023/06/19 19:41:13;;;;;;;10.80;9.60;;;26.40;58.80;;;;;;222310;1254;25469;-45
2023/06/19 19:46:17;;;;;;;10.10;9.20;;;26.30;58.50;;;;;;222533;1267;24228;-45
2023/06/19 19:51:21;;;;;;;10.70;9.20;;;26.30;58.10;;;;;;222182;1253;25259;-45
2023/06/19 19:56:26;;;;;;;10.70;9.60;;;26.30;58.40;;;;;;222336;1266;22520;-44
2023/06/19 20:01:30;;;;;;;11.20;9.20;;;26.50;57.70;;;;;;222463;1264;23277;-47
2023/06/19 20:06:34;;;;;;;15.40;9.40;;;26.70;57.90;;;;;;222470;1265;25469;-45
2023/06/19 20:11:39;;;;;;;12.90;9.50;;;26.70;58.00;;;;;;222399;1263;22518;-43
2023/06/19 20:16:43;;;;;;;10.10;9.20;;;26.50;58.30;;;;;;226359;1267;25364;-45
2023/06/19 20:21:48;;;;;;;10.80;9.50;;;26.60;57.80;;;;;;222684;1262;22712;-46
2023/06/19 20:26:53;;;;;;;10.30;9.20;;;26.30;58.30;;;;;;222394;1255;22675;-47
2023/06/19 20:31:57;;;;;;;10.80;9.10;;;26.10;58.60;;;;;;222567;1260;22515;-47
2023/06/19 20:37:02;;;;;;;9.60;8.70;;;26.00;59.20;;;;;;222592;1261;24190;-46
2023/06/19 20:42:07;;;;;;;11.90;9.20;;;25.90;59.70;;;;;;222782;1260;22511;-48
2023/06/19 20:47:12;;;;;;;9.80;9.00;;;25.80;60.00;;;;;;222713;1260;22618;-46
2023/06/19 20:52:16;;;;;;;10.10;9.20;;;25.80;60.30;;;;;;222695;1259;24218;-45
2023/06/19 20:57:20;;;;;;;13.00;10.10;;;25.70;59.80;;;;;;222515;1257;24215;-47
2023/06/19 21:02:25;;;;;;;10.70;9.80;;;25.70;59.30;;;;;;222772;1246;22518;-46
2023/06/19 21:07:31;;;;;;;12.00;10.70;;;25.70;58.70;;;;;;222590;1254;25210;-47
2023/06/19 21:12:36;;;;;;;11.30;10.20;;;25.90;58.40;;;;;;222733;1260;22634;-47
2023/06/19 21:17:40;;;;;;;21.20;10.40;;;26.20;57.70;;;;;;222480;1264;23903;-43
2023/06/19 21:22:44;;;;;;;10.40;9.50;;;26.20;59.90;;;;;;222624;1265;22512;-47
2023/06/19 21:27:49;;;;;;;10.90;10.10;;;26.30;58.60;;;;;;222415;1260;24250;-46
2023/06/19 21:32:53;;;;;;;11.30;10.20;;;26.30;59.00;;;;;;222622;1261;24256;-44
2023/06/19 21:37:57;;;;;;;11.30;10.30;;;26.40;59.10;;;;;;222436;1253;22683;-45
2023/06/19 21:43:02;;;;;;;10.60;9.60;;;26.30;58.60;;;;;;222372;1253;22510;-48
2023/06/19 21:48:06;;;;;;;11.00;10.10;;;26.30;58.80;;;;;;222689;1260;22511;-46
2023/06/19 21:53:10;;;;;;;11.10;10.10;;;26.40;58.10;;;;;;222680;1260;23723;-45
2023/06/19 21:58:14;;;;;;;10.50;9.70;;;26.40;58.70;;;;;;222402;1261;23143;-46
2023/06/19 22:03:20;;;;;;;12.40;10.70;;;26.40;58.60;;;;;;221722;1266;25666;-46
2023/06/19 22:08:25;;;;;;;11.80;10.30;;;26.40;58.80;;;;;;221954;1256;23913;-46
2023/06/19 22:13:43;;;;;;;11.60;10.70;;;26.40;58.70;;;;;;221607;1267;22553;-48
2023/06/19 22:18:48;;;;;;;11.40;10.30;;;26.50;58.50;;;;;;221812;1264;24242;-47
2023/06/19 22:23:53;;;;;;;11.50;10.50;;;26.50;58.30;;;;;;222833;1257;22522;-46
2023/06/19 22:28:57;;;;;;;11.50;10.50;;;26.50;58.30;;;;;;222583;1257;22522;-45
2023/06/19 22:34:01;;;;;;;10.90;10.00;;;26.60;58.30;;;;;;222624;1264;24955;-46
2023/06/19 22:39:05;;;;;;;11.60;10.60;;;26.50;58.30;;;;;;222642;1252;24216;-46
2023/06/19 22:44:09;;;;;;;11.30;10.40;;;26.50;58.40;;;;;;222763;1254;22512;-50
2023/06/19 22:49:13;;;;;;;11.80;10.80;;;26.50;58.50;;;;;;222743;1260;23907;-46
2023/06/19 22:54:19;;;;;;;10.80;9.90;;;26.60;58.50;;;;;;222687;1261;22676;-44
2023/06/19 22:59:25;;;;;;;11.50;10.40;;;26.50;58.50;;;;;;222558;1259;24216;-46
2023/06/19 23:04:29;;;;;;;11.10;10.20;;;26.70;58.40;;;;;;222654;1252;24309;-45
2023/06/19 23:09:33;;;;;;;11.20;10.30;;;26.60;58.30;;;;;;222471;1256;22530;-44
2023/06/19 23:14:38;;;;;;;11.50;10.60;;;26.50;58.50;;;;;;222528;1254;22791;-44
2023/06/19 23:19:42;;;;;;;11.70;10.70;;;26.50;59.60;;;;;;222614;1252;24279;-46
2023/06/19 23:24:46;;;;;;;11.30;10.50;;;26.40;59.80;;;;;;222551;1249;22599;-50
2023/06/19 23:29:51;;;;;;;11.40;10.40;;;26.40;59.20;;;;;;222564;1262;22592;-50
2023/06/19 23:34:55;;;;;;;11.10;10.10;;;26.60;59.20;;;;;;222667;1261;22510;-50
2023/06/19 23:39:59;;;;;;;10.90;9.90;;;26.50;59.30;;;;;;222442;1246;22667;-52
2023/06/19 23:45:04;;;;;;;10.80;9.70;;;26.40;59.20;;;;;;222543;1261;22575;-52
2023/06/19 23:50:08;;;;;;;11.30;10.40;;;26.40;59.30;;;;;;222484;1265;23146;-48
2023/06/19 23:55:13;;;;;;;11.60;9.70;;;26.40;59.40;;;;;;222431;1253;24183;-53
